createdAt,value
2023-02-14T00:01:52.693Z,0
2023-02-14T00:07:52.688Z,0
2023-02-14T00:13:52.664Z,0
2023-02-14T00:19:52.709Z,0
2023-02-14T00:25:52.713Z,0
2023-02-14T00:31:52.767Z,0
2023-02-14T00:37:52.674Z,0
2023-02-14T00:43:52.657Z,0
2023-02-14T00:49:52.665Z,0
2023-02-14T00:55:52.687Z,0
2023-02-14T01:01:52.646Z,0
2023-02-14T01:07:52.658Z,0
2023-02-14T01:13:52.696Z,0
2023-02-14T01:19:52.680Z,0
2023-02-14T01:25:52.642Z,0
2023-02-14T01:31:52.763Z,0
2023-02-14T01:37:52.637Z,0
2023-02-14T01:43:52.656Z,0
2023-02-14T01:49:52.677Z,0
2023-02-14T01:55:52.674Z,0
2023-02-14T02:01:52.684Z,0
2023-02-14T02:07:52.698Z,0
2023-02-14T02:13:52.666Z,0
2023-02-14T02:19:52.657Z,0
2023-02-14T02:25:52.684Z,0
2023-02-14T02:31:52.830Z,0
2023-02-14T02:37:52.659Z,0
2023-02-14T02:43:52.681Z,0
2023-02-14T02:49:52.668Z,0
2023-02-14T02:55:52.644Z,0
2023-02-14T03:01:52.772Z,0
2023-02-14T03:07:52.645Z,0
2023-02-14T03:13:52.661Z,0
2023-02-14T03:19:52.690Z,0
2023-02-14T03:25:52.678Z,0
2023-02-14T03:31:52.845Z,0
2023-02-14T03:37:52.719Z,0
2023-02-14T03:43:52.746Z,0
2023-02-14T03:49:52.644Z,0
2023-02-14T03:55:52.686Z,0
2023-02-14T04:01:52.655Z,0
2023-02-14T04:07:52.629Z,0
2023-02-14T04:13:52.685Z,0
2023-02-14T04:19:52.638Z,0
2023-02-14T04:25:52.629Z,0
2023-02-14T04:31:52.925Z,0
2023-02-14T04:37:52.630Z,0
2023-02-14T04:43:52.613Z,0
2023-02-14T04:49:52.658Z,0
2023-02-14T04:55:52.634Z,0
2023-02-14T05:01:52.691Z,0
2023-02-14T05:07:52.678Z,0
2023-02-14T05:13:52.605Z,0
2023-02-14T05:19:52.628Z,0
2023-02-14T05:25:52.633Z,0
2023-02-14T05:31:52.742Z,0
2023-02-14T05:37:52.603Z,0
2023-02-14T05:43:52.654Z,0
2023-02-14T05:49:52.624Z,0
2023-02-14T05:55:52.633Z,0
2023-02-14T06:01:52.762Z,0
2023-02-14T06:07:52.672Z,0
2023-02-14T06:13:52.633Z,0
2023-02-14T06:19:52.668Z,0
2023-02-14T06:25:52.604Z,0
2023-02-14T06:31:52.842Z,0
2023-02-14T06:37:52.707Z,0
2023-02-14T06:43:52.654Z,0
2023-02-14T06:49:52.703Z,0
2023-02-14T06:55:52.658Z,0
2023-02-14T07:01:52.666Z,0
2023-02-14T07:07:52.621Z,0
2023-02-14T07:13:52.647Z,0
2023-02-14T07:19:52.595Z,0
2023-02-14T07:25:52.612Z,0
2023-02-14T07:31:52.830Z,0
2023-02-14T07:37:52.599Z,0
2023-02-14T07:43:52.607Z,0
2023-02-14T07:49:52.623Z,0
2023-02-14T07:55:52.597Z,0.4
2023-02-14T08:01:52.688Z,2.1
2023-02-14T08:07:52.650Z,4
2023-02-14T08:13:52.622Z,3.7
2023-02-14T08:19:52.611Z,1.2
2023-02-14T08:25:52.644Z,0
2023-02-14T08:31:52.753Z,0
2023-02-14T08:37:52.597Z,1.1
2023-02-14T08:43:52.621Z,3.4
2023-02-14T08:49:52.608Z,5.1
2023-02-14T08:55:52.601Z,6.3
2023-02-14T09:01:52.664Z,7
2023-02-14T09:07:52.613Z,7.5
2023-02-14T09:13:52.596Z,7.6
2023-02-14T09:19:52.672Z,8.2
2023-02-14T09:25:52.610Z,8.8
2023-02-14T09:31:52.760Z,9.1
2023-02-14T09:37:52.669Z,8.9
2023-02-14T09:43:52.587Z,9.2
2023-02-14T09:49:52.680Z,9.4
2023-02-14T09:55:52.625Z,9.4
2023-02-14T10:01:52.678Z,8.4
2023-02-14T10:07:52.585Z,9.4
2023-02-14T10:13:52.618Z,9.1
2023-02-14T10:19:52.617Z,10
2023-02-14T10:25:52.590Z,10.7
2023-02-14T10:31:52.698Z,10.7
2023-02-14T10:37:52.617Z,10.8
2023-02-14T10:43:52.662Z,10
2023-02-14T10:49:52.679Z,10.5
2023-02-14T10:55:52.620Z,10.3
2023-02-14T11:01:52.614Z,10.1
2023-02-14T11:07:52.656Z,10.6
2023-02-14T11:13:52.625Z,9.7
2023-02-14T11:19:52.605Z,9.4
2023-02-14T11:25:52.637Z,8.7
2023-02-14T11:31:52.741Z,6.8
2023-02-14T11:37:52.616Z,6.7
2023-02-14T11:43:52.624Z,5.8
2023-02-14T11:49:52.636Z,5.6
2023-02-14T11:55:52.634Z,6
2023-02-14T12:01:52.653Z,5.7
2023-02-14T12:07:52.618Z,6.1
2023-02-14T12:13:52.608Z,6
2023-02-14T12:19:52.656Z,6.1
2023-02-14T12:25:52.625Z,5.9
2023-02-14T12:33:52.608Z,6
2023-02-14T12:39:52.645Z,6.4
2023-02-14T12:45:52.606Z,6
2023-02-14T12:51:52.632Z,6.2
2023-02-14T12:57:52.628Z,6.4
2023-02-14T13:03:52.627Z,6.2
2023-02-14T13:09:52.623Z,6.1
2023-02-14T13:15:53.230Z,6.1
2023-02-14T13:21:52.622Z,6.2
2023-02-14T13:30:03.078Z,6.1
2023-02-14T13:35:52.609Z,5.9
2023-02-14T13:41:52.609Z,6.4
2023-02-14T13:47:52.717Z,6.3
2023-02-14T13:53:52.655Z,6.2
2023-02-14T13:59:52.656Z,6.2
2023-02-14T14:05:52.680Z,6
2023-02-14T14:11:52.628Z,6.1
2023-02-14T14:17:52.658Z,5.8
2023-02-14T14:23:52.929Z,5.8
2023-02-14T14:29:52.693Z,6.1
2023-02-14T14:35:52.613Z,5.9
2023-02-14T14:41:52.589Z,5.8
2023-02-14T14:47:54.177Z,5.9
2023-02-14T14:53:52.631Z,5.8
2023-02-14T14:59:52.624Z,5.4
2023-02-14T15:05:52.639Z,5.4
2023-02-14T15:11:52.621Z,5.5
2023-02-14T15:17:52.627Z,5.3
2023-02-14T15:23:52.656Z,5.3
2023-02-14T15:29:52.661Z,5.1
2023-02-14T15:35:52.630Z,4.9
2023-02-14T15:41:52.656Z,4.9
2023-02-14T15:47:52.620Z,4.6
2023-02-14T15:53:52.637Z,4.5
2023-02-14T15:59:52.653Z,4.2
2023-02-14T16:05:52.611Z,3.9
2023-02-14T16:11:52.600Z,3.7
2023-02-14T16:17:52.637Z,3.4
2023-02-14T16:23:52.620Z,3.2
2023-02-14T16:29:52.635Z,3.1
2023-02-14T16:35:52.625Z,2.9
2023-02-14T16:41:52.581Z,2.6
2023-02-14T16:47:52.606Z,2.4
2023-02-14T16:53:52.633Z,2.3
2023-02-14T16:59:52.603Z,1.9
2023-02-14T17:05:52.625Z,2
2023-02-14T17:11:52.641Z,1.5
2023-02-14T17:17:52.606Z,1.3
2023-02-14T17:23:52.624Z,1.2
2023-02-14T17:29:52.654Z,1
2023-02-14T17:35:52.640Z,0.9
2023-02-14T17:41:52.655Z,0.6
2023-02-14T17:47:52.653Z,0.5
2023-02-14T17:53:52.588Z,0
2023-02-14T17:59:52.594Z,0
2023-02-14T18:05:52.656Z,0
2023-02-14T18:11:52.600Z,0
2023-02-14T18:17:52.611Z,0
2023-02-14T18:23:52.644Z,0
2023-02-14T18:29:52.644Z,0
2023-02-14T18:35:52.597Z,0
2023-02-14T18:41:52.644Z,0
2023-02-14T18:47:52.600Z,0
2023-02-14T18:53:52.600Z,0
2023-02-14T18:59:52.591Z,0
2023-02-14T19:05:52.587Z,0
2023-02-14T19:11:52.592Z,0
2023-02-14T19:17:53.038Z,0
2023-02-14T19:23:53.004Z,0
2023-02-14T19:29:52.941Z,0
2023-02-14T19:35:52.642Z,0
2023-02-14T19:41:52.590Z,0
2023-02-14T19:47:53.091Z,0
2023-02-14T19:53:52.612Z,0
2023-02-14T19:59:52.595Z,0
2023-02-14T20:05:52.601Z,0
2023-02-14T20:11:52.750Z,0
2023-02-14T20:17:52.573Z,0
2023-02-14T20:23:52.581Z,0
2023-02-14T20:29:52.663Z,0
2023-02-14T20:35:52.573Z,0
2023-02-14T20:41:52.582Z,0
2023-02-14T20:47:52.628Z,0
2023-02-14T20:53:52.565Z,0
2023-02-14T20:59:52.580Z,0
2023-02-14T21:05:52.602Z,0
2023-02-14T21:12:02.857Z,0
2023-02-14T21:17:52.579Z,0
2023-02-14T21:23:52.608Z,0
2023-02-14T21:29:52.658Z,0
2023-02-14T21:35:52.563Z,0
2023-02-14T21:41:52.590Z,0
2023-02-14T21:47:52.579Z,0
2023-02-14T21:53:52.714Z,0
2023-02-14T21:59:52.579Z,0
2023-02-14T22:05:52.573Z,0
2023-02-14T22:11:52.556Z,0
2023-02-14T22:17:52.588Z,0
2023-02-14T22:23:52.558Z,0
2023-02-14T22:29:52.630Z,0
2023-02-14T22:35:52.585Z,0
2023-02-14T22:41:52.551Z,0
2023-02-14T22:47:52.540Z,0
2023-02-14T22:53:52.567Z,0
2023-02-14T22:59:52.561Z,0
2023-02-14T23:05:52.544Z,0
2023-02-14T23:11:52.669Z,0
2023-02-14T23:17:52.618Z,0
2023-02-14T23:23:52.543Z,0
2023-02-14T23:29:52.659Z,0
2023-02-14T23:35:52.554Z,0
2023-02-14T23:41:52.545Z,0
2023-02-14T23:47:52.584Z,0
2023-02-14T23:53:52.535Z,0
2023-02-14T23:59:52.550Z,0
